sensor_id;sensor_type;location;lat;lon;timestamp;pressure;altitude;pressure_sealevel;temperature;humidity
69751;BME280;57335;52.288;6.056;2023-12-20T00:01:01;101460.00;;;5.39;100.00
69751;BME280;57335;52.288;6.056;2023-12-20T00:03:27;101438.31;;;5.31;100.00
69751;BME280;57335;52.288;6.056;2023-12-20T00:05:58;101441.78;;;5.39;100.00
69751;BME280;57335;52.288;6.056;2023-12-20T00:08:25;101447.00;;;5.39;100.00
69751;BME280;57335;52.288;6.056;2023-12-20T00:10:51;101463.72;;;5.45;100.00
69751;BME280;57335;52.288;6.056;2023-12-20T00:13:18;101454.63;;;5.41;100.00
69751;BME280;57335;52.288;6.056;2023-12-20T00:15:44;101438.03;;;5.34;100.00
69751;BME280;57335;52.288;6.056;2023-12-20T00:18:11;101448.72;;;5.31;100.00
69751;BME280;57335;52.288;6.056;2023-12-20T00:20:38;101448.53;;;5.24;100.00
69751;BME280;57335;52.288;6.056;2023-12-20T00:23:04;101459.56;;;5.18;100.00
69751;BME280;57335;52.288;6.056;2023-12-20T00:25:31;101455.16;;;5.18;100.00
69751;BME280;57335;52.288;6.056;2023-12-20T00:27:57;101433.50;;;5.02;100.00
69751;BME280;57335;52.288;6.056;2023-12-20T00:30:24;101428.31;;;5.02;100.00
69751;BME280;57335;52.288;6.056;2023-12-20T00:32:50;101442.75;;;5.04;100.00
69751;BME280;57335;52.288;6.056;2023-12-20T00:35:17;101430.03;;;4.93;100.00
69751;BME280;57335;52.288;6.056;2023-12-20T00:37:43;101448.88;;;4.95;100.00
69751;BME280;57335;52.288;6.056;2023-12-20T00:40:10;101446.41;;;4.85;100.00
69751;BME280;57335;52.288;6.056;2023-12-20T00:42:37;101428.63;;;4.72;100.00
69751;BME280;57335;52.288;6.056;2023-12-20T00:45:04;101427.34;;;4.76;100.00
69751;BME280;57335;52.288;6.056;2023-12-20T00:47:31;101434.84;;;4.79;100.00
69751;BME280;57335;52.288;6.056;2023-12-20T00:49:58;101439.19;;;4.79;100.00
69751;BME280;57335;52.288;6.056;2023-12-20T00:52:25;101438.53;;;4.77;100.00
69751;BME280;57335;52.288;6.056;2023-12-20T00:54:51;101429.94;;;4.76;100.00
69751;BME280;57335;52.288;6.056;2023-12-20T00:57:18;101422.28;;;4.75;100.00
69751;BME280;57335;52.288;6.056;2023-12-20T00:59:45;101421.63;;;4.73;100.00
69751;BME280;57335;52.288;6.056;2023-12-20T01:02:11;101420.03;;;4.72;100.00
69751;BME280;57335;52.288;6.056;2023-12-20T01:04:38;101427.50;;;4.75;100.00
69751;BME280;57335;52.288;6.056;2023-12-20T01:07:04;101432.84;;;4.73;100.00
69751;BME280;57335;52.288;6.056;2023-12-20T01:09:31;101412.84;;;4.66;100.00
69751;BME280;57335;52.288;6.056;2023-12-20T01:11:57;101425.88;;;4.74;100.00
69751;BME280;57335;52.288;6.056;2023-12-20T01:14:24;101417.72;;;4.69;100.00
69751;BME280;57335;52.288;6.056;2023-12-20T01:16:50;101415.72;;;4.63;100.00
69751;BME280;57335;52.288;6.056;2023-12-20T01:19:17;101427.16;;;4.70;100.00
69751;BME280;57335;52.288;6.056;2023-12-20T01:21:43;101428.63;;;4.72;100.00
69751;BME280;57335;52.288;6.056;2023-12-20T01:24:10;101437.72;;;4.76;100.00
69751;BME280;57335;52.288;6.056;2023-12-20T01:26:37;101436.78;;;4.77;100.00
69751;BME280;57335;52.288;6.056;2023-12-20T01:29:03;101430.91;;;4.75;100.00
69751;BME280;57335;52.288;6.056;2023-12-20T01:31:30;101422.63;;;4.72;100.00
69751;BME280;57335;52.288;6.056;2023-12-20T01:33:56;101441.13;;;4.77;100.00
69751;BME280;57335;52.288;6.056;2023-12-20T01:36:23;101427.81;;;4.72;100.00
69751;BME280;57335;52.288;6.056;2023-12-20T01:38:49;101423.28;;;4.74;100.00
69751;BME280;57335;52.288;6.056;2023-12-20T01:41:16;101424.56;;;4.70;100.00
69751;BME280;57335;52.288;6.056;2023-12-20T01:43:42;101424.84;;;4.67;100.00
69751;BME280;57335;52.288;6.056;2023-12-20T01:46:17;101437.72;;;4.76;100.00
69751;BME280;57335;52.288;6.056;2023-12-20T01:48:44;101425.22;;;4.72;100.00
69751;BME280;57335;52.288;6.056;2023-12-20T01:51:11;101426.69;;;4.74;100.00
69751;BME280;57335;52.288;6.056;2023-12-20T01:53:38;101437.59;;;4.78;100.00
69751;BME280;57335;52.288;6.056;2023-12-20T01:56:06;101433.66;;;4.74;100.00
69751;BME280;57335;52.288;6.056;2023-12-20T01:58:33;101439.19;;;4.79;100.00
69751;BME280;57335;52.288;6.056;2023-12-20T02:01:00;101426.69;;;4.74;100.00
69751;BME280;57335;52.288;6.056;2023-12-20T02:03:27;101430.75;;;4.77;100.00
69751;BME280;57335;52.288;6.056;2023-12-20T02:05:53;101415.44;;;4.66;100.00
69751;BME280;57335;52.288;6.056;2023-12-20T02:08:20;101433.66;;;4.74;100.00
69751;BME280;57335;52.288;6.056;2023-12-20T02:10:46;101435.78;;;4.78;100.00
69751;BME280;57335;52.288;6.056;2023-12-20T02:13:13;101428.00;;;4.78;100.00
69751;BME280;57335;52.288;6.056;2023-12-20T02:15:40;101438.59;;;4.85;100.00
69751;BME280;57335;52.288;6.056;2023-12-20T02:18:09;101439.94;;;4.89;100.00
69751;BME280;57335;52.288;6.056;2023-12-20T02:20:35;101417.19;;;4.83;100.00
69751;BME280;57335;52.288;6.056;2023-12-20T02:23:02;101420.06;;;4.80;100.00
69751;BME280;57335;52.288;6.056;2023-12-20T02:25:28;101427.59;;;4.91;100.00
69751;BME280;57335;52.288;6.056;2023-12-20T02:27:55;101414.25;;;4.86;100.00
69751;BME280;57335;52.288;6.056;2023-12-20T02:30:21;101400.31;;;4.87;100.00
69751;BME280;57335;52.288;6.056;2023-12-20T02:32:49;101400.00;;;4.90;100.00
69751;BME280;57335;52.288;6.056;2023-12-20T02:35:16;101411.41;;;4.97;100.00
69751;BME280;57335;52.288;6.056;2023-12-20T02:37:43;101397.56;;;4.97;100.00
69751;BME280;57335;52.288;6.056;2023-12-20T02:40:10;101403.94;;;5.03;100.00
69751;BME280;57335;52.288;6.056;2023-12-20T02:42:36;101410.78;;;5.04;100.00
69751;BME280;57335;52.288;6.056;2023-12-20T02:45:03;101401.50;;;5.01;100.00
69751;BME280;57335;52.288;6.056;2023-12-20T02:47:30;101403.50;;;5.07;100.00
69751;BME280;57335;52.288;6.056;2023-12-20T02:49:57;101401.72;;;5.08;100.00
69751;BME280;57335;52.288;6.056;2023-12-20T02:52:24;101394.56;;;5.10;100.00
69751;BME280;57335;52.288;6.056;2023-12-20T02:54:51;101388.88;;;5.06;100.00
69751;BME280;57335;52.288;6.056;2023-12-20T02:57:17;101399.75;;;5.10;100.00
69751;BME280;57335;52.288;6.056;2023-12-20T02:59:44;101388.56;;;5.09;100.00
69751;BME280;57335;52.288;6.056;2023-12-20T03:02:10;101361.03;;;4.90;100.00
69751;BME280;57335;52.288;6.056;2023-12-20T03:04:37;101374.72;;;5.00;100.00
69751;BME280;57335;52.288;6.056;2023-12-20T03:07:03;101374.41;;;5.04;100.00
69751;BME280;57335;52.288;6.056;2023-12-20T03:09:30;101371.47;;;4.98;100.00
69751;BME280;57335;52.288;6.056;2023-12-20T03:12:12;101370.03;;;5.04;100.00
69751;BME280;57335;52.288;6.056;2023-12-20T03:14:38;101367.25;;;4.97;100.00
69751;BME280;57335;52.288;6.056;2023-12-20T03:17:05;101361.88;;;4.99;100.00
69751;BME280;57335;52.288;6.056;2023-12-20T03:19:31;101369.66;;;4.99;100.00
69751;BME280;57335;52.288;6.056;2023-12-20T03:21:58;101368.19;;;4.96;100.00
69751;BME280;57335;52.288;6.056;2023-12-20T03:24:27;101369.50;;;5.00;100.00
69751;BME280;57335;52.288;6.056;2023-12-20T03:26:54;101364.78;;;4.96;100.00
69751;BME280;57335;52.288;6.056;2023-12-20T03:29:20;101359.28;;;4.99;100.00
69751;BME280;57335;52.288;6.056;2023-12-20T03:31:46;101355.72;;;5.00;100.00
69751;BME280;57335;52.288;6.056;2023-12-20T03:34:13;101356.22;;;5.04;100.00
69751;BME280;57335;52.288;6.056;2023-12-20T03:36:40;101353.16;;;5.08;100.00
69751;BME280;57335;52.288;6.056;2023-12-20T03:39:06;101355.44;;;5.11;100.00
69751;BME280;57335;52.288;6.056;2023-12-20T03:41:33;101354.31;;;5.14;100.00
69751;BME280;57335;52.288;6.056;2023-12-20T03:43:59;101352.88;;;5.19;100.00
69751;BME280;57335;52.288;6.056;2023-12-20T03:46:26;101365.53;;;5.23;100.00
69751;BME280;57335;52.288;6.056;2023-12-20T03:48:52;101357.72;;;5.14;100.00
69751;BME280;57335;52.288;6.056;2023-12-20T03:51:19;101360.50;;;5.21;100.00
69751;BME280;57335;52.288;6.056;2023-12-20T03:53:46;101355.63;;;5.18;100.00
69751;BME280;57335;52.288;6.056;2023-12-20T03:56:13;101359.84;;;5.19;100.00
69751;BME280;57335;52.288;6.056;2023-12-20T03:58:39;101369.63;;;5.25;100.00
69751;BME280;57335;52.288;6.056;2023-12-20T04:01:09;101363.44;;;5.26;100.00
69751;BME280;57335;52.288;6.056;2023-12-20T04:03:38;101369.16;;;5.30;100.00
69751;BME280;57335;52.288;6.056;2023-12-20T04:06:05;101364.09;;;5.28;100.00
69751;BME280;57335;52.288;6.056;2023-12-20T04:08:31;101364.91;;;5.29;100.00
69751;BME280;57335;52.288;6.056;2023-12-20T04:10:58;101354.19;;;5.24;100.00
69751;BME280;57335;52.288;6.056;2023-12-20T04:13:24;101366.84;;;5.27;100.00
69751;BME280;57335;52.288;6.056;2023-12-20T04:15:51;101361.47;;;5.20;100.00
69751;BME280;57335;52.288;6.056;2023-12-20T04:18:18;101359.03;;;5.18;100.00
69751;BME280;57335;52.288;6.056;2023-12-20T04:20:45;101358.22;;;5.18;100.00
69751;BME280;57335;52.288;6.056;2023-12-20T04:23:12;101364.88;;;5.20;100.00
69751;BME280;57335;52.288;6.056;2023-12-20T04:25:38;101346.38;;;5.15;100.00
69751;BME280;57335;52.288;6.056;2023-12-20T04:28:05;101355.00;;;5.24;100.00
69751;BME280;57335;52.288;6.056;2023-12-20T04:30:31;101345.91;;;5.28;100.00
69751;BME280;57335;52.288;6.056;2023-12-20T04:32:58;101352.91;;;5.36;100.00
69751;BME280;57335;52.288;6.056;2023-12-20T04:35:24;101346.91;;;5.35;100.00
69751;BME280;57335;52.288;6.056;2023-12-20T04:37:51;101347.72;;;5.36;100.00
69751;BME280;57335;52.288;6.056;2023-12-20T04:40:17;101354.22;;;5.40;100.00
69751;BME280;57335;52.288;6.056;2023-12-20T04:42:44;101353.88;;;5.43;100.00
69751;BME280;57335;52.288;6.056;2023-12-20T04:45:10;101349.53;;;5.44;100.00
69751;BME280;57335;52.288;6.056;2023-12-20T04:47:39;101350.03;;;5.47;100.00
69751;BME280;57335;52.288;6.056;2023-12-20T04:50:06;101345.31;;;5.51;100.00
69751;BME280;57335;52.288;6.056;2023-12-20T04:52:33;101338.00;;;5.54;100.00
69751;BME280;57335;52.288;6.056;2023-12-20T04:55:00;101340.28;;;5.57;100.00
69751;BME280;57335;52.288;6.056;2023-12-20T04:57:26;101341.09;;;5.58;100.00
69751;BME280;57335;52.288;6.056;2023-12-20T04:59:53;101334.09;;;5.58;100.00
69751;BME280;57335;52.288;6.056;2023-12-20T05:02:19;101335.41;;;5.71;100.00
69751;BME280;57335;52.288;6.056;2023-12-20T05:04:46;101328.91;;;5.67;100.00
69751;BME280;57335;52.288;6.056;2023-12-20T05:07:12;101332.81;;;5.71;100.00
69751;BME280;57335;52.288;6.056;2023-12-20T05:09:39;101342.91;;;5.74;100.00
69751;BME280;57335;52.288;6.056;2023-12-20T05:12:06;101349.56;;;5.76;100.00
69751;BME280;57335;52.288;6.056;2023-12-20T05:14:32;101362.72;;;5.83;100.00
69751;BME280;57335;52.288;6.056;2023-12-20T05:16:59;101351.66;;;5.81;100.00
69751;BME280;57335;52.288;6.056;2023-12-20T05:19:25;101334.31;;;5.82;100.00
69751;BME280;57335;52.288;6.056;2023-12-20T05:21:52;101334.44;;;5.88;100.00
69751;BME280;57335;52.288;6.056;2023-12-20T05:24:19;101326.50;;;5.82;100.00
69751;BME280;57335;52.288;6.056;2023-12-20T05:26:46;101335.25;;;5.89;100.00
69751;BME280;57335;52.288;6.056;2023-12-20T05:29:15;101333.47;;;5.89;100.00
69751;BME280;57335;52.288;6.056;2023-12-20T05:31:41;101341.59;;;5.94;100.00
69751;BME280;57335;52.288;6.056;2023-12-20T05:34:08;101328.09;;;5.91;100.00
69751;BME280;57335;52.288;6.056;2023-12-20T05:36:34;101344.88;;;5.96;100.00
69751;BME280;57335;52.288;6.056;2023-12-20T05:39:01;101327.78;;;5.94;100.00
69751;BME280;57335;52.288;6.056;2023-12-20T05:41:28;101351.06;;;6.04;100.00
69751;BME280;57335;52.288;6.056;2023-12-20T05:43:54;101347.47;;;6.05;100.00
69751;BME280;57335;52.288;6.056;2023-12-20T05:46:20;101344.22;;;6.03;100.00
69751;BME280;57335;52.288;6.056;2023-12-20T05:48:48;101339.38;;;5.99;100.00
69751;BME280;57335;52.288;6.056;2023-12-20T05:51:15;101343.91;;;6.06;100.00
69751;BME280;57335;52.288;6.056;2023-12-20T05:53:41;101345.72;;;6.13;100.00
69751;BME280;57335;52.288;6.056;2023-12-20T05:56:08;101342.78;;;6.08;100.00
69751;BME280;57335;52.288;6.056;2023-12-20T05:58:34;101349.75;;;6.16;100.00
69751;BME280;57335;52.288;6.056;2023-12-20T06:01:01;101332.69;;;6.05;100.00
69751;BME280;57335;52.288;6.056;2023-12-20T06:03:30;101333.00;;;6.10;100.00
69751;BME280;57335;52.288;6.056;2023-12-20T06:05:56;101329.09;;;6.14;100.00
69751;BME280;57335;52.288;6.056;2023-12-20T06:08:38;101334.44;;;6.21;100.00
69751;BME280;57335;52.288;6.056;2023-12-20T06:11:05;101331.53;;;6.24;100.00
69751;BME280;57335;52.288;6.056;2023-12-20T06:13:32;101328.94;;;6.24;100.00
69751;BME280;57335;52.288;6.056;2023-12-20T06:15:59;101315.78;;;6.17;100.00
69751;BME280;57335;52.288;6.056;2023-12-20T06:18:25;101315.91;;;6.24;100.00
69751;BME280;57335;52.288;6.056;2023-12-20T06:20:52;101319.16;;;6.26;100.00
69751;BME280;57335;52.288;6.056;2023-12-20T06:23:18;101329.22;;;6.29;100.00
69751;BME280;57335;52.288;6.056;2023-12-20T06:25:45;101319.81;;;6.28;100.00
69751;BME280;57335;52.288;6.056;2023-12-20T06:28:11;101313.47;;;6.31;100.00
69751;BME280;57335;52.288;6.056;2023-12-20T06:30:40;101318.84;;;6.37;100.00
69751;BME280;57335;52.288;6.056;2023-12-20T06:33:07;101306.94;;;6.35;100.00
69751;BME280;57335;52.288;6.056;2023-12-20T06:35:36;101318.31;;;6.42;100.00
69751;BME280;57335;52.288;6.056;2023-12-20T06:38:03;101322.06;;;6.48;100.00
69751;BME280;57335;52.288;6.056;2023-12-20T06:40:29;101312.97;;;6.44;100.00
69751;BME280;57335;52.288;6.056;2023-12-20T06:42:56;101309.53;;;6.43;100.00
69751;BME280;57335;52.288;6.056;2023-12-20T06:45:34;101314.41;;;6.46;100.00
69751;BME280;57335;52.288;6.056;2023-12-20T06:48:01;101322.50;;;6.51;100.00
69751;BME280;57335;52.288;6.056;2023-12-20T06:50:27;101305.59;;;6.47;100.00
69751;BME280;57335;52.288;6.056;2023-12-20T06:52:54;101318.13;;;6.52;100.00
69751;BME280;57335;52.288;6.056;2023-12-20T06:55:20;101312.09;;;6.51;100.00
69751;BME280;57335;52.288;6.056;2023-12-20T06:57:47;101300.88;;;6.51;100.00
69751;BME280;57335;52.288;6.056;2023-12-20T07:00:14;101304.94;;;6.53;100.00
69751;BME280;57335;52.288;6.056;2023-12-20T07:02:41;101315.34;;;6.53;100.00
69751;BME280;57335;52.288;6.056;2023-12-20T07:05:07;101312.75;;;6.53;100.00
69751;BME280;57335;52.288;6.056;2023-12-20T07:07:34;101307.38;;;6.55;100.00
69751;BME280;57335;52.288;6.056;2023-12-20T07:10:01;101309.16;;;6.63;100.00
69751;BME280;57335;52.288;6.056;2023-12-20T07:12:28;101301.50;;;6.61;100.00
69751;BME280;57335;52.288;6.056;2023-12-20T07:14:54;101297.75;;;6.55;100.00
69751;BME280;57335;52.288;6.056;2023-12-20T07:17:22;101290.63;;;6.49;100.00
69751;BME280;57335;52.288;6.056;2023-12-20T07:19:49;101307.03;;;6.66;100.00
69751;BME280;57335;52.288;6.056;2023-12-20T07:22:15;101299.88;;;6.60;100.00
69751;BME280;57335;52.288;6.056;2023-12-20T07:24:42;101289.47;;;6.60;100.00
69751;BME280;57335;52.288;6.056;2023-12-20T07:27:08;101303.41;;;6.67;100.00
69751;BME280;57335;52.288;6.056;2023-12-20T07:29:35;101288.16;;;6.64;100.00
69751;BME280;57335;52.288;6.056;2023-12-20T07:32:01;101294.16;;;6.65;100.00
69751;BME280;57335;52.288;6.056;2023-12-20T07:34:28;101302.09;;;6.71;100.00
69751;BME280;57335;52.288;6.056;2023-12-20T07:36:55;101292.19;;;6.67;100.00
69751;BME280;57335;52.288;6.056;2023-12-20T07:39:21;101297.88;;;6.70;100.00
69751;BME280;57335;52.288;6.056;2023-12-20T07:41:48;101282.59;;;6.67;100.00
69751;BME280;57335;52.288;6.056;2023-12-20T07:44:14;101283.88;;;6.71;100.00
69751;BME280;57335;52.288;6.056;2023-12-20T07:46:42;101271.03;;;6.70;100.00
69751;BME280;57335;52.288;6.056;2023-12-20T07:49:08;101272.00;;;6.69;100.00
69751;BME280;57335;52.288;6.056;2023-12-20T07:51:36;101278.16;;;6.76;100.00
69751;BME280;57335;52.288;6.056;2023-12-20T07:54:03;101269.88;;;6.72;100.00
69751;BME280;57335;52.288;6.056;2023-12-20T07:56:31;101277.69;;;6.72;100.00
69751;BME280;57335;52.288;6.056;2023-12-20T07:58:57;101281.75;;;6.75;100.00
69751;BME280;57335;52.288;6.056;2023-12-20T08:01:26;101305.16;;;6.83;100.00
69751;BME280;57335;52.288;6.056;2023-12-20T08:03:52;101296.22;;;6.77;100.00
69751;BME280;57335;52.288;6.056;2023-12-20T08:06:19;101322.25;;;6.86;100.00
69751;BME280;57335;52.288;6.056;2023-12-20T08:08:45;101307.31;;;6.79;100.00
69751;BME280;57335;52.288;6.056;2023-12-20T08:11:21;101304.34;;;6.83;100.00
69751;BME280;57335;52.288;6.056;2023-12-20T08:13:47;101317.34;;;6.91;100.00
69751;BME280;57335;52.288;6.056;2023-12-20T08:16:13;101311.16;;;6.92;100.00
69751;BME280;57335;52.288;6.056;2023-12-20T08:18:42;101311.31;;;6.90;100.00
69751;BME280;57335;52.288;6.056;2023-12-20T08:21:08;101317.00;;;6.94;100.00
69751;BME280;57335;52.288;6.056;2023-12-20T08:23:35;101318.28;;;6.98;100.00
69751;BME280;57335;52.288;6.056;2023-12-20T08:26:05;101314.41;;;6.94;100.00
69751;BME280;57335;52.288;6.056;2023-12-20T08:28:32;101310.00;;;6.94;100.00
69751;BME280;57335;52.288;6.056;2023-12-20T08:30:59;101311.91;;;7.01;100.00
69751;BME280;57335;52.288;6.056;2023-12-20T08:33:26;101290.47;;;6.90;100.00
69751;BME280;57335;52.288;6.056;2023-12-20T08:35:53;101305.91;;;7.00;100.00
69751;BME280;57335;52.288;6.056;2023-12-20T08:38:19;101299.84;;;6.99;100.00
69751;BME280;57335;52.288;6.056;2023-12-20T08:40:45;101291.75;;;6.94;100.00
69751;BME280;57335;52.288;6.056;2023-12-20T08:43:12;101304.25;;;6.99;100.00
69751;BME280;57335;52.288;6.056;2023-12-20T08:45:39;101298.09;;;7.00;100.00
69751;BME280;57335;52.288;6.056;2023-12-20T08:48:06;101308.97;;;7.04;100.00
69751;BME280;57335;52.288;6.056;2023-12-20T08:50:35;101299.84;;;6.99;100.00
69751;BME280;57335;52.288;6.056;2023-12-20T08:53:03;101304.75;;;7.03;100.00
69751;BME280;57335;52.288;6.056;2023-12-20T08:55:29;101298.09;;;7.00;100.00
69751;BME280;57335;52.288;6.056;2023-12-20T08:57:57;101295.31;;;7.02;100.00
69751;BME280;57335;52.288;6.056;2023-12-20T09:00:24;101300.53;;;7.02;100.00
69751;BME280;57335;52.288;6.056;2023-12-20T09:02:54;101303.56;;;7.05;100.00
69751;BME280;57335;52.288;6.056;2023-12-20T09:05:20;101293.50;;;7.02;100.00
69751;BME280;57335;52.288;6.056;2023-12-20T09:07:47;101292.34;;;7.05;100.00
69751;BME280;57335;52.288;6.056;2023-12-20T09:10:14;101293.00;;;7.07;100.00
69751;BME280;57335;52.288;6.056;2023-12-20T09:12:43;101302.78;;;7.05;100.00
69751;BME280;57335;52.288;6.056;2023-12-20T09:15:10;101296.75;;;7.04;100.00
69751;BME280;57335;52.288;6.056;2023-12-20T09:17:36;101291.88;;;7.01;100.00
69751;BME280;57335;52.288;6.056;2023-12-20T09:20:03;101283.72;;;7.04;100.00
69751;BME280;57335;52.288;6.056;2023-12-20T09:22:33;101287.13;;;7.05;100.00
69751;BME280;57335;52.288;6.056;2023-12-20T09:25:00;101296.22;;;7.09;100.00
69751;BME280;57335;52.288;6.056;2023-12-20T09:27:28;101296.06;;;7.10;100.00
69751;BME280;57335;52.288;6.056;2023-12-20T09:29:54;101280.81;;;6.99;100.00
69751;BME280;57335;52.288;6.056;2023-12-20T09:32:21;101294.28;;;7.11;100.00
69751;BME280;57335;52.288;6.056;2023-12-20T09:34:47;101294.09;;;7.12;100.00
69751;BME280;57335;52.288;6.056;2023-12-20T09:37:15;101302.72;;;7.13;100.00
69751;BME280;57335;52.288;6.056;2023-12-20T09:39:41;101303.84;;;7.18;100.00
69751;BME280;57335;52.288;6.056;2023-12-20T09:42:11;101310.97;;;7.25;100.00
69751;BME280;57335;52.288;6.056;2023-12-20T09:44:37;101297.13;;;7.24;100.00
69751;BME280;57335;52.288;6.056;2023-12-20T09:47:07;101282.50;;;7.15;100.00
69751;BME280;57335;52.288;6.056;2023-12-20T09:49:34;101299.03;;;7.30;100.00
69751;BME280;57335;52.288;6.056;2023-12-20T09:52:04;101300.03;;;7.29;100.00
69751;BME280;57335;52.288;6.056;2023-12-20T09:54:32;101303.63;;;7.28;100.00
69751;BME280;57335;52.288;6.056;2023-12-20T09:56:58;101303.47;;;7.30;100.00
69751;BME280;57335;52.288;6.056;2023-12-20T09:59:25;101304.25;;;7.30;100.00
69751;BME280;57335;52.288;6.056;2023-12-20T10:01:55;101300.03;;;7.29;100.00
69751;BME280;57335;52.288;6.056;2023-12-20T10:04:24;101325.34;;;7.44;100.00
69751;BME280;57335;52.288;6.056;2023-12-20T10:06:56;101309.25;;;7.40;100.00
69751;BME280;57335;52.288;6.056;2023-12-20T10:09:23;101315.59;;;7.46;100.00
69751;BME280;57335;52.288;6.056;2023-12-20T10:11:54;101315.91;;;7.43;100.00
69751;BME280;57335;52.288;6.056;2023-12-20T10:14:21;101317.19;;;7.47;100.00
69751;BME280;57335;52.288;6.056;2023-12-20T10:16:49;101316.38;;;7.46;100.00
69751;BME280;57335;52.288;6.056;2023-12-20T10:19:17;101315.38;;;7.47;100.00
69751;BME280;57335;52.288;6.056;2023-12-20T10:21:44;101326.44;;;7.49;100.00
69751;BME280;57335;52.288;6.056;2023-12-20T10:24:17;101325.94;;;7.54;100.00
69751;BME280;57335;52.288;6.056;2023-12-20T10:26:43;101320.31;;;7.65;100.00
69751;BME280;57335;52.288;6.056;2023-12-20T10:29:10;101319.81;;;7.70;100.00
69751;BME280;57335;52.288;6.056;2023-12-20T10:31:36;101318.56;;;7.81;100.00
69751;BME280;57335;52.288;6.056;2023-12-20T10:34:05;101319.94;;;7.91;100.00
69751;BME280;57335;52.288;6.056;2023-12-20T10:36:33;101322.69;;;7.98;100.00
69751;BME280;57335;52.288;6.056;2023-12-20T10:38:59;101329.16;;;8.02;100.00
69751;BME280;57335;52.288;6.056;2023-12-20T10:41:27;101317.38;;;8.06;100.00
69751;BME280;57335;52.288;6.056;2023-12-20T10:44:04;101307.41;;;8.10;100.00
69751;BME280;57335;52.288;6.056;2023-12-20T10:46:34;101285.69;;;8.09;100.00
69751;BME280;57335;52.288;6.056;2023-12-20T10:49:04;101291.03;;;8.16;100.00
69751;BME280;57335;52.288;6.056;2023-12-20T10:51:31;101292.09;;;8.22;100.00
69751;BME280;57335;52.288;6.056;2023-12-20T10:54:00;101285.16;;;8.29;100.00
69751;BME280;57335;52.288;6.056;2023-12-20T10:56:32;101286.50;;;8.39;100.00
69751;BME280;57335;52.288;6.056;2023-12-20T10:59:02;101290.69;;;8.49;100.00
69751;BME280;57335;52.288;6.056;2023-12-20T11:01:30;101275.72;;;8.57;100.00
69751;BME280;57335;52.288;6.056;2023-12-20T11:03:58;101263.91;;;8.62;100.00
69751;BME280;57335;52.288;6.056;2023-12-20T11:06:27;101284.81;;;8.76;100.00
69751;BME280;57335;52.288;6.056;2023-12-20T11:09:11;101281.28;;;8.84;100.00
69751;BME280;57335;52.288;6.056;2023-12-20T11:14:35;101286.75;;;9.04;100.00
69751;BME280;57335;52.288;6.056;2023-12-20T11:17:08;101274.72;;;9.10;100.00
69751;BME280;57335;52.288;6.056;2023-12-20T11:19:36;101259.28;;;9.15;100.00
69751;BME280;57335;52.288;6.056;2023-12-20T11:22:04;101256.28;;;9.18;100.00
69751;BME280;57335;52.288;6.056;2023-12-20T11:24:32;101250.56;;;9.29;100.00
69751;BME280;57335;52.288;6.056;2023-12-20T11:27:00;101260.53;;;9.41;100.00
69751;BME280;57335;52.288;6.056;2023-12-20T11:29:35;101241.69;;;9.52;100.00
69751;BME280;57335;52.288;6.056;2023-12-20T11:32:04;101235.09;;;9.56;100.00
69751;BME280;57335;52.288;6.056;2023-12-20T11:37:35;101224.41;;;9.79;100.00
69751;BME280;57335;52.288;6.056;2023-12-20T11:42:33;101230.06;;;9.83;100.00
69751;BME280;57335;52.288;6.056;2023-12-20T11:45:04;101227.22;;;9.77;100.00
69751;BME280;57335;52.288;6.056;2023-12-20T11:47:31;101234.44;;;9.75;100.00
69751;BME280;57335;52.288;6.056;2023-12-20T11:49:58;101229.97;;;9.69;100.00
69751;BME280;57335;52.288;6.056;2023-12-20T11:52:26;101229.22;;;9.75;100.00
69751;BME280;57335;52.288;6.056;2023-12-20T11:54:53;101227.22;;;9.77;100.00
69751;BME280;57335;52.288;6.056;2023-12-20T11:57:20;101216.38;;;9.81;100.00
69751;BME280;57335;52.288;6.056;2023-12-20T11:59:46;101241.78;;;9.87;100.00
69751;BME280;57335;52.288;6.056;2023-12-20T12:02:13;101233.69;;;9.82;100.00
69751;BME280;57335;52.288;6.056;2023-12-20T12:04:42;101234.22;;;9.70;100.00
69751;BME280;57335;52.288;6.056;2023-12-20T12:07:09;101220.00;;;9.58;100.00
69751;BME280;57335;52.288;6.056;2023-12-20T12:09:36;101223.38;;;9.52;100.00
69751;BME280;57335;52.288;6.056;2023-12-20T12:12:02;101214.06;;;9.43;100.00
69751;BME280;57335;52.288;6.056;2023-12-20T12:14:29;101219.16;;;9.51;100.00
69751;BME280;57335;52.288;6.056;2023-12-20T12:16:56;101223.78;;;9.49;100.00
69751;BME280;57335;52.288;6.056;2023-12-20T12:19:23;101222.91;;;9.42;100.00
69751;BME280;57335;52.288;6.056;2023-12-20T12:21:51;101221.66;;;9.37;100.00
69751;BME280;57335;52.288;6.056;2023-12-20T12:24:29;101217.25;;;9.38;100.00
69751;BME280;57335;52.288;6.056;2023-12-20T12:26:57;101221.66;;;9.37;100.00
69751;BME280;57335;52.288;6.056;2023-12-20T12:29:24;101208.38;;;9.32;100.00
69751;BME280;57335;52.288;6.056;2023-12-20T12:31:51;101201.06;;;9.28;100.00
69751;BME280;57335;52.288;6.056;2023-12-20T12:34:17;101209.16;;;9.33;100.00
69751;BME280;57335;52.288;6.056;2023-12-20T12:36:44;101201.28;;;9.26;100.00
69751;BME280;57335;52.288;6.056;2023-12-20T12:39:14;101208.38;;;9.32;100.00
69751;BME280;57335;52.288;6.056;2023-12-20T12:41:42;101204.13;;;9.31;100.00
69751;BME280;57335;52.288;6.056;2023-12-20T12:44:08;101206.09;;;9.29;100.00
69751;BME280;57335;52.288;6.056;2023-12-20T12:46:46;101193.78;;;9.23;100.00
69751;BME280;57335;52.288;6.056;2023-12-20T12:49:13;101198.22;;;9.23;100.00
69751;BME280;57335;52.288;6.056;2023-12-20T12:51:39;101202.44;;;9.24;100.00
69751;BME280;57335;52.288;6.056;2023-12-20T12:54:06;101188.56;;;9.23;100.00
69751;BME280;57335;52.288;6.056;2023-12-20T12:56:32;101181.28;;;9.18;100.00
69751;BME280;57335;52.288;6.056;2023-12-20T12:58:59;101173.63;;;9.17;100.00